Time;durP1;ratioP1;P1;durP2;ratioP2;P2;SDS_P1;SDS_P2;PMS_P1;PMS_P2;Temp;Humidity;BMP_temperature;BMP_pressure;BME280_temperature;BME280_humidity;BME280_pressure;Samples;Min_cycle;Max_cycle;Signal;HPM_P1;HPM_P2
2020/12/15 00:01:56;;;;;;;3.40;1.93;;;10.00;1.00;;;;;;5093757;28;20706;-66
2020/12/15 00:04:21;;;;;;;3.60;2.30;;;10.00;1.00;;;;;;5094013;28;20168;-66
2020/12/15 00:06:47;;;;;;;3.07;2.63;;;9.90;1.00;;;;;;5094050;28;20406;-66
2020/12/15 00:09:13;;;;;;;4.40;2.00;;;9.70;1.00;;;;;;5094018;28;20779;-66
2020/12/15 00:11:39;;;;;;;4.87;1.90;;;9.80;1.00;;;;;;5093632;28;20179;-66
2020/12/15 00:14:04;;;;;;;3.93;2.50;;;9.80;1.00;;;;;;5093621;28;20488;-66
2020/12/15 00:16:30;;;;;;;6.33;4.07;;;9.90;1.00;;;;;;5093655;28;20710;-66
2020/12/15 00:18:55;;;;;;;4.50;2.70;;;9.90;1.00;;;;;;5093491;28;20172;-66
2020/12/15 00:21:22;;;;;;;8.07;3.93;;;9.80;1.00;;;;;;5093288;28;20210;-66
2020/12/15 00:23:49;;;;;;;3.43;2.40;;;9.80;1.00;;;;;;5093388;28;20219;-66
2020/12/15 00:26:15;;;;;;;4.97;3.43;;;9.70;1.00;;;;;;5093802;28;20462;-66
2020/12/15 00:28:41;;;;;;;5.23;2.00;;;9.80;1.00;;;;;;5093344;28;20461;-66
2020/12/15 00:31:07;;;;;;;6.07;3.23;;;9.70;1.00;;;;;;5092029;28;20969;-66
2020/12/15 00:33:32;;;;;;;5.00;2.83;;;9.80;1.00;;;;;;5093590;28;20636;-66
2020/12/15 00:35:58;;;;;;;3.30;2.10;;;9.70;1.00;;;;;;5093264;28;20197;-66
2020/12/15 00:38:24;;;;;;;3.30;1.93;;;9.50;1.00;;;;;;5093246;28;20164;-66
2020/12/15 00:40:49;;;;;;;2.77;2.20;;;9.50;1.50;;;;;;5093425;28;20188;-66
2020/12/15 00:43:15;;;;;;;6.93;1.80;;;9.50;8.00;;;;;;5093176;28;20216;-66
2020/12/15 00:45:40;;;;;;;4.30;2.20;;;9.40;55.30;;;;;;5093089;28;20201;-66
2020/12/15 00:48:06;;;;;;;4.50;2.47;;;9.40;99.90;;;;;;5093168;28;20207;-66
2020/12/15 00:50:31;;;;;;;4.80;2.37;;;9.40;91.90;;;;;;5092544;28;20171;-66
2020/12/15 00:52:57;;;;;;;3.00;2.17;;;9.30;99.90;;;;;;5093218;28;20458;-66
2020/12/15 00:55:22;;;;;;;3.43;2.30;;;9.30;99.90;;;;;;5093123;28;20624;-66
2020/12/15 00:57:48;;;;;;;2.90;2.33;;;9.20;99.90;;;;;;5092968;28;20171;-66
2020/12/15 01:00:13;;;;;;;2.00;1.80;;;9.30;99.90;;;;;;5093318;28;20175;-65
2020/12/15 01:02:40;;;;;;;4.17;2.40;;;9.20;99.90;;;;;;5092833;28;20199;-66
2020/12/15 01:05:05;;;;;;;7.90;2.70;;;9.20;99.90;;;;;;5092967;28;20251;-66
2020/12/15 01:07:31;;;;;;;6.23;2.87;;;9.10;99.90;;;;;;5093260;28;20447;-66
2020/12/15 01:09:57;;;;;;;3.47;2.53;;;9.10;99.90;;;;;;5092966;28;20212;-66
2020/12/15 01:12:23;;;;;;;3.67;2.67;;;9.10;99.90;;;;;;5092910;28;20564;-66
2020/12/15 01:14:48;;;;;;;4.03;3.03;;;9.10;99.90;;;;;;5092918;28;20411;-66
2020/12/15 01:17:15;;;;;;;4.23;2.47;;;9.10;99.90;;;;;;5092755;28;20390;-66
2020/12/15 01:19:41;;;;;;;5.22;2.78;;;9.10;99.90;;;;;;5092800;28;20184;-66
2020/12/15 01:22:07;;;;;;;6.20;2.80;;;9.10;99.90;;;;;;5092650;28;20249;-66
2020/12/15 01:24:33;;;;;;;3.23;2.03;;;9.00;99.90;;;;;;5092815;28;20410;-66
2020/12/15 01:26:58;;;;;;;4.95;1.90;;;9.00;99.90;;;;;;5092755;28;20406;-66
2020/12/15 01:29:24;;;;;;;2.67;2.13;;;9.00;99.90;;;;;;5093040;28;20171;-66
2020/12/15 01:31:49;;;;;;;3.53;2.70;;;9.00;99.90;;;;;;5092732;28;20193;-66
2020/12/15 01:34:15;;;;;;;3.50;2.40;;;9.00;99.90;;;;;;5092802;28;20167;-67
2020/12/15 01:36:41;;;;;;;3.30;2.20;;;9.00;99.90;;;;;;5092722;28;20166;-66
2020/12/15 01:39:06;;;;;;;4.00;2.47;;;9.00;1.00;;;;;;5093022;28;20635;-66
2020/12/15 01:41:32;;;;;;;3.73;2.40;;;8.90;1.00;;;;;;5092639;28;20234;-66
2020/12/15 01:44:03;;;;;;;4.70;2.23;;;8.90;1.00;;;;;;5092635;28;20683;-66
2020/12/15 01:46:30;;;;;;;3.17;2.33;;;8.90;1.00;;;;;;5092672;28;20577;-66
2020/12/15 01:48:56;;;;;;;3.10;2.38;;;8.90;1.00;;;;;;5092530;28;20501;-66
2020/12/15 01:51:24;;;;;;;2.60;1.90;;;8.70;99.90;;;;;;5092495;28;20200;-66
2020/12/15 01:53:54;;;;;;;3.47;2.63;;;8.60;99.90;;;;;;5092715;28;20437;-66
2020/12/15 01:56:21;;;;;;;2.57;2.13;;;8.70;99.90;;;;;;5092868;28;20152;-66
2020/12/15 01:58:52;;;;;;;3.23;2.40;;;8.80;99.90;;;;;;5092789;28;20481;-66
2020/12/15 02:01:18;;;;;;;3.37;2.30;;;8.80;99.90;;;;;;5093620;28;20429;-66
2020/12/15 02:03:44;;;;;;;4.40;2.87;;;8.60;1.00;;;;;;5096196;28;20445;-66
2020/12/15 02:06:09;;;;;;;5.07;2.47;;;8.80;1.00;;;;;;5096119;28;20177;-66
2020/12/15 02:08:35;;;;;;;3.70;2.40;;;8.80;99.90;;;;;;5096045;28;20406;-66
2020/12/15 02:11:02;;;;;;;6.87;3.20;;;8.70;1.00;;;;;;5095963;28;20187;-66
2020/12/15 02:13:27;;;;;;;3.03;2.00;;;8.80;1.00;;;;;;5096198;28;20172;-66
2020/12/15 02:15:53;;;;;;;3.87;2.87;;;8.80;1.00;;;;;;5095935;28;20851;-66
2020/12/15 02:18:19;;;;;;;5.30;2.40;;;8.90;99.90;;;;;;5096086;28;20680;-65
2020/12/15 02:20:44;;;;;;;5.50;2.83;;;8.90;99.90;;;;;;5095976;28;20180;-66
2020/12/15 02:23:10;;;;;;;8.50;3.20;;;8.80;1.00;;;;;;5095905;28;20748;-66
2020/12/15 02:25:36;;;;;;;8.33;3.03;;;8.80;99.90;;;;;;5096242;28;20627;-66
2020/12/15 02:28:02;;;;;;;5.60;2.60;;;8.80;99.90;;;;;;5096787;28;20224;-66
2020/12/15 02:30:27;;;;;;;4.57;2.90;;;8.50;1.00;;;;;;5095862;28;20165;-66
2020/12/15 02:32:53;;;;;;;3.13;2.53;;;8.50;1.00;;;;;;5095433;28;20966;-66
2020/12/15 02:35:19;;;;;;;3.60;2.60;;;8.70;1.00;;;;;;5095586;28;20170;-66
2020/12/15 02:37:44;;;;;;;4.33;2.97;;;8.80;99.90;;;;;;5095471;28;20221;-66
2020/12/15 02:40:10;;;;;;;4.60;2.97;;;8.80;25.90;;;;;;5095689;28;20527;-66
2020/12/15 02:42:35;;;;;;;3.50;3.13;;;8.70;99.90;;;;;;5095238;28;20200;-66
2020/12/15 02:45:01;;;;;;;5.13;3.70;;;8.70;99.90;;;;;;5095429;28;20354;-66
2020/12/15 02:47:27;;;;;;;5.20;2.80;;;8.90;1.00;;;;;;5096146;28;20167;-66
2020/12/15 02:49:53;;;;;;;5.10;2.80;;;8.80;1.00;;;;;;5096040;28;20251;-66
2020/12/15 02:52:22;;;;;;;6.03;2.83;;;8.80;1.00;;;;;;5095058;28;20459;-66
2020/12/15 02:54:48;;;;;;;4.30;2.50;;;8.90;1.00;;;;;;5095139;28;20416;-65
2020/12/15 02:57:15;;;;;;;4.10;2.33;;;8.80;1.00;;;;;;5095069;28;20416;-65
2020/12/15 02:59:41;;;;;;;7.30;2.57;;;8.80;1.00;;;;;;5095109;28;20172;-66
2020/12/15 03:02:07;;;;;;;5.32;2.50;;;8.80;61.90;;;;;;5094891;28;20436;-66
2020/12/15 03:04:32;;;;;;;3.93;2.60;;;8.80;90.60;;;;;;5094878;28;20163;-65
2020/12/15 03:06:58;;;;;;;4.40;3.10;;;8.80;1.00;;;;;;5094845;28;20194;-66
2020/12/15 03:09:23;;;;;;;5.60;2.70;;;8.70;99.90;;;;;;5094883;28;20202;-66
2020/12/15 03:11:49;;;;;;;5.30;2.90;;;8.70;99.90;;;;;;5094808;28;20188;-66
2020/12/15 03:14:14;;;;;;;7.40;2.90;;;8.70;99.90;;;;;;5093829;28;20212;-66
2020/12/15 03:16:40;;;;;;;4.23;2.90;;;8.70;1.00;;;;;;5094952;28;20191;-66
2020/12/15 03:19:06;;;;;;;3.90;2.90;;;8.70;99.90;;;;;;5094980;28;20203;-66
2020/12/15 03:21:35;;;;;;;5.37;3.10;;;8.80;99.90;;;;;;5094407;28;20290;-66
2020/12/15 03:24:04;;;;;;;5.25;3.10;;;8.70;99.90;;;;;;5094485;28;20214;-65
2020/12/15 03:26:30;;;;;;;7.37;3.03;;;8.70;99.90;;;;;;5094783;28;20286;-66
2020/12/15 03:28:55;;;;;;;6.63;3.97;;;8.70;99.90;;;;;;5094667;28;20443;-66
2020/12/15 03:31:21;;;;;;;3.93;2.90;;;8.90;1.00;;;;;;5094335;28;20188;-66
2020/12/15 03:33:48;;;;;;;4.50;3.27;;;9.00;1.00;;;;;;5094676;28;20173;-66
2020/12/15 03:36:13;;;;;;;5.20;3.27;;;8.90;99.90;;;;;;5094625;28;20167;-66
2020/12/15 03:38:39;;;;;;;6.17;3.23;;;8.90;99.90;;;;;;5094267;28;20843;-66
2020/12/15 03:41:05;;;;;;;4.90;2.80;;;8.80;69.10;;;;;;5094277;28;20726;-66
2020/12/15 03:43:30;;;;;;;5.37;3.70;;;8.60;1.00;;;;;;5094133;28;20198;-66
2020/12/15 03:45:56;;;;;;;3.63;2.63;;;8.70;1.00;;;;;;5094287;28;20191;-66
2020/12/15 03:48:21;;;;;;;5.50;3.17;;;8.70;99.90;;;;;;5094244;28;20628;-66
2020/12/15 03:50:47;;;;;;;7.87;3.80;;;8.70;99.90;;;;;;5094084;28;20270;-66
2020/12/15 03:53:13;;;;;;;4.10;3.37;;;8.90;1.00;;;;;;5094438;28;20163;-66
2020/12/15 03:55:38;;;;;;;6.13;3.33;;;8.70;99.90;;;;;;5094173;28;20175;-67
2020/12/15 03:58:04;;;;;;;4.50;3.30;;;8.70;99.90;;;;;;5094378;28;20176;-67
2020/12/15 04:00:29;;;;;;;7.93;3.23;;;8.90;1.00;;;;;;5094074;28;20551;-67
2020/12/15 04:02:55;;;;;;;7.43;3.60;;;8.80;1.00;;;;;;5094063;28;20196;-66
2020/12/15 04:05:20;;;;;;;4.23;3.00;;;8.70;99.90;;;;;;5093897;28;20193;-66
2020/12/15 04:07:46;;;;;;;6.33;3.20;;;8.80;99.90;;;;;;5092505;28;20176;-66
2020/12/15 04:10:12;;;;;;;6.13;4.80;;;8.90;99.90;;;;;;5094004;28;20172;-66
2020/12/15 04:12:37;;;;;;;5.40;3.47;;;8.80;99.90;;;;;;5093691;28;20237;-66
2020/12/15 04:15:06;;;;;;;3.33;2.73;;;8.90;6.20;;;;;;5093914;28;20637;-66
2020/12/15 04:17:36;;;;;;;3.75;3.35;;;8.60;99.90;;;;;;5093698;28;20205;-66
2020/12/15 04:20:04;;;;;;;5.30;3.92;;;8.80;99.90;;;;;;5093587;28;20171;-66
2020/12/15 04:22:29;;;;;;;4.95;3.70;;;8.90;1.00;;;;;;5093278;28;20214;-65
2020/12/15 04:24:55;;;;;;;3.40;3.10;;;8.50;1.00;;;;;;5093546;28;20163;-66
2020/12/15 04:27:21;;;;;;;4.63;3.60;;;8.50;1.00;;;;;;5093509;28;20635;-66
2020/12/15 04:29:46;;;;;;;5.40;3.97;;;8.70;88.50;;;;;;5092080;28;20168;-66
2020/12/15 04:32:12;;;;;;;5.37;3.93;;;8.60;99.90;;;;;;5093572;28;20643;-66
2020/12/15 04:34:37;;;;;;;4.77;3.80;;;8.80;78.50;;;;;;5093403;28;20168;-65
2020/12/15 04:37:03;;;;;;;6.90;4.07;;;8.90;58.40;;;;;;5093373;28;20171;-65
2020/12/15 04:39:28;;;;;;;5.50;4.40;;;8.90;99.90;;;;;;5093320;28;20190;-66
2020/12/15 04:41:54;;;;;;;7.23;4.10;;;8.70;1.00;;;;;;5093200;28;20195;-66
2020/12/15 04:44:20;;;;;;;4.57;3.67;;;8.60;99.90;;;;;;5093583;28;20266;-66
2020/12/15 04:47:05;;;;;;;5.53;3.67;;;8.80;99.90;;;;;;5093263;28;20539;-66
2020/12/15 04:49:56;;;;;;;6.10;3.40;;;8.90;99.90;;;;;;5093476;28;20156;-66
2020/12/15 04:52:24;;;;;;;4.50;4.05;;;8.90;99.90;;;;;;5093175;28;20433;-66
2020/12/15 04:54:51;;;;;;;5.40;4.30;;;8.80;99.90;;;;;;5093166;28;20753;-66
2020/12/15 04:57:20;;;;;;;6.50;4.23;;;8.80;1.00;;;;;;5093278;28;20425;-66
2020/12/15 04:59:48;;;;;;;5.03;3.87;;;8.60;78.30;;;;;;5093477;28;20486;-67
2020/12/15 05:02:14;;;;;;;7.80;4.30;;;8.50;99.90;;;;;;5093179;28;20465;-66
2020/12/15 05:04:40;;;;;;;4.80;3.80;;;8.90;99.90;;;;;;5093345;28;20414;-66
2020/12/15 05:07:07;;;;;;;6.47;3.73;;;9.00;1.00;;;;;;5093310;28;20181;-66
2020/12/15 05:09:34;;;;;;;4.63;3.83;;;8.50;99.90;;;;;;5092989;28;20375;-67
2020/12/15 05:12:00;;;;;;;7.50;3.90;;;8.70;99.90;;;;;;5093210;28;20484;-67
2020/12/15 05:14:26;;;;;;;5.20;3.90;;;8.80;1.00;;;;;;5093256;28;20448;-67
2020/12/15 05:16:52;;;;;;;7.20;4.77;;;8.90;1.00;;;;;;5092926;28;20441;-67
2020/12/15 05:19:18;;;;;;;5.03;4.07;;;9.00;99.90;;;;;;5092906;28;20408;-67
2020/12/15 05:22:00;;;;;;;6.60;4.80;;;8.80;11.10;;;;;;5107246;22;20494;-68
2020/12/15 05:24:29;;;;;;;6.10;5.03;;;8.90;99.90;;;;;;5092746;28;20422;-67
2020/12/15 05:27:00;;;;;;;5.00;4.50;;;8.90;99.90;;;;;;5093025;28;20473;-67
2020/12/15 05:29:27;;;;;;;5.80;4.80;;;9.10;99.90;;;;;;5092677;28;20389;-64
2020/12/15 05:31:53;;;;;;;5.70;4.95;;;9.00;99.90;;;;;;5092773;28;20445;-67
2020/12/15 05:34:22;;;;;;;6.03;4.33;;;9.00;99.90;;;;;;5092840;28;20168;-67
2020/12/15 05:36:58;;;;;;;9.90;6.20;;;9.00;99.90;;;;;;5094510;28;20396;-67
2020/12/15 05:39:25;;;;;;;7.13;5.70;;;9.10;1.00;;;;;;5096398;28;20858;-66
2020/12/15 05:42:21;;;;;;;5.07;4.63;;;9.00;1.00;;;;;;5096461;28;20443;-67
2020/12/15 05:44:47;;;;;;;5.40;4.63;;;9.00;99.90;;;;;;5087535;28;20484;-66
2020/12/15 05:47:14;;;;;;;5.93;4.63;;;9.00;99.90;;;;;;5096468;28;20399;-67
2020/12/15 05:49:40;;;;;;;6.10;4.30;;;9.10;99.90;;;;;;5096341;28;20405;-66
2020/12/15 05:52:10;;;;;;;6.60;5.53;;;9.10;99.90;;;;;;5096490;28;20455;-67
2020/12/15 05:54:35;;;;;;;9.00;5.43;;;9.20;1.00;;;;;;5095478;28;20436;-67
2020/12/15 05:57:04;;;;;;;9.40;5.17;;;9.10;1.00;;;;;;5096043;28;20440;-66
2020/12/15 05:59:30;;;;;;;6.40;5.47;;;9.20;1.00;;;;;;5095215;28;20173;-67
2020/12/15 06:02:05;;;;;;;8.47;5.77;;;9.30;1.00;;;;;;5096231;28;20424;-67
2020/12/15 06:04:32;;;;;;;7.50;4.90;;;9.30;1.00;;;;;;5096600;28;20874;-67
2020/12/15 06:07:01;;;;;;;8.30;5.00;;;9.30;99.90;;;;;;5096197;28;20424;-67
2020/12/15 06:09:29;;;;;;;7.07;4.90;;;9.30;99.90;;;;;;5096160;28;20408;-67
2020/12/15 06:11:54;;;;;;;8.67;5.17;;;9.40;1.00;;;;;;5095986;28;20396;-67
2020/12/15 06:14:22;;;;;;;5.83;4.77;;;9.50;99.90;;;;;;5095973;28;20421;-69
2020/12/15 06:16:48;;;;;;;7.23;4.33;;;9.50;8.70;;;;;;5095763;28;20236;-65
2020/12/15 06:19:13;;;;;;;5.70;5.10;;;9.50;1.00;;;;;;5096044;28;20917;-68
2020/12/15 06:21:51;;;;;;;6.27;5.40;;;9.50;1.00;;;;;;5095790;28;20192;-69
2020/12/15 06:24:25;;;;;;;6.70;4.93;;;9.40;99.90;;;;;;5095562;28;20219;-66
2020/12/15 06:26:59;;;;;;;5.03;4.57;;;9.40;1.00;;;;;;5095430;28;20468;-66
2020/12/15 06:29:34;;;;;;;7.43;4.90;;;9.40;99.90;;;;;;5095404;28;20401;-66
2020/12/15 06:32:01;;;;;;;8.70;4.90;;;9.40;99.90;;;;;;5095493;28;20417;-66
2020/12/15 06:34:28;;;;;;;7.30;5.10;;;9.40;1.00;;;;;;5094946;28;20402;-66
2020/12/15 06:36:55;;;;;;;6.00;5.17;;;9.50;1.00;;;;;;5094905;28;20441;-66
2020/12/15 06:39:22;;;;;;;5.93;5.10;;;9.50;99.90;;;;;;5095405;28;20508;-66
2020/12/15 06:42:02;;;;;;;6.57;5.50;;;9.50;99.90;;;;;;5095104;28;20463;-67
2020/12/15 06:44:35;;;;;;;5.93;4.73;;;9.40;1.00;;;;;;5095039;28;20890;-68
2020/12/15 06:47:03;;;;;;;5.60;4.47;;;9.40;1.00;;;;;;5095126;28;20350;-65
2020/12/15 06:49:31;;;;;;;4.90;4.20;;;9.40;99.90;;;;;;5095091;28;20546;-66
2020/12/15 06:51:58;;;;;;;6.63;5.70;;;9.50;99.90;;;;;;5095085;28;20425;-67
2020/12/15 06:54:28;;;;;;;6.90;5.20;;;9.50;99.90;;;;;;5094637;28;20430;-68
2020/12/15 06:57:29;;;;;;;5.47;4.93;;;9.50;99.90;;;;;;5094811;28;20443;-66
2020/12/15 06:59:55;;;;;;;6.03;4.83;;;9.50;99.90;;;;;;5094759;28;20394;-66
2020/12/15 07:02:28;;;;;;;10.93;5.40;;;9.60;99.90;;;;;;5094765;28;20462;-68
2020/12/15 07:05:17;;;;;;;5.13;4.60;;;9.60;1.00;;;;;;5094877;28;20481;-66
2020/12/15 07:07:53;;;;;;;5.60;5.00;;;9.50;99.90;;;;;;5094495;28;20414;-67
2020/12/15 07:10:21;;;;;;;5.33;4.83;;;9.60;1.00;;;;;;5094668;28;20368;-67
2020/12/15 07:12:48;;;;;;;6.90;5.20;;;9.80;1.00;;;;;;5094377;28;20433;-66
2020/12/15 07:15:15;;;;;;;6.17;5.50;;;9.80;99.90;;;;;;5094494;28;20409;-67
2020/12/15 07:17:51;;;;;;;7.57;5.27;;;9.80;91.70;;;;;;5095121;28;20384;-67
2020/12/15 07:20:19;;;;;;;5.53;5.03;;;9.70;99.90;;;;;;5092914;28;20421;-67
2020/12/15 07:22:45;;;;;;;7.30;5.43;;;9.70;99.90;;;;;;5094006;28;20465;-67
2020/12/15 07:25:12;;;;;;;6.90;5.23;;;9.60;50.80;;;;;;5094037;28;20902;-67
2020/12/15 07:27:39;;;;;;;6.60;5.40;;;9.60;99.90;;;;;;5094192;28;20408;-66
2020/12/15 07:30:09;;;;;;;6.57;5.53;;;9.70;1.00;;;;;;5094241;28;20934;-68
2020/12/15 07:32:38;;;;;;;9.00;6.87;;;9.80;1.00;;;;;;5094348;28;20794;-69
2020/12/15 07:35:23;;;;;;;7.57;6.40;;;9.60;99.90;;;;;;5094259;28;20493;-67
2020/12/15 07:37:56;;;;;;;8.20;6.37;;;9.50;1.00;;;;;;5094401;28;20416;-67
2020/12/15 07:40:22;;;;;;;10.50;6.33;;;9.60;99.90;;;;;;5093890;28;20481;-65
2020/12/15 07:42:59;;;;;;;8.13;6.30;;;9.70;99.90;;;;;;5094083;28;20511;-67
2020/12/15 07:45:27;;;;;;;7.90;6.00;;;9.70;22.40;;;;;;5093797;28;20950;-67
2020/12/15 07:47:53;;;;;;;9.07;6.00;;;9.70;1.00;;;;;;5093715;28;20482;-68
2020/12/15 07:50:27;;;;;;;8.67;6.10;;;9.70;99.90;;;;;;5093794;28;20394;-66
2020/12/15 07:53:05;;;;;;;11.60;7.20;;;9.80;99.90;;;;;;5094146;28;20933;-68
2020/12/15 07:55:31;;;;;;;6.90;5.90;;;9.70;1.00;;;;;;5093831;28;20805;-67
2020/12/15 07:57:57;;;;;;;7.00;6.30;;;9.70;1.00;;;;;;5093547;28;20438;-68
2020/12/15 08:00:23;;;;;;;7.73;6.20;;;9.70;8.30;;;;;;5092938;28;20213;-67
2020/12/15 08:02:59;;;;;;;9.70;7.30;;;9.80;1.00;;;;;;5093249;28;20522;-68
2020/12/15 08:05:24;;;;;;;7.50;5.43;;;9.80;1.00;;;;;;5093454;28;20383;-66
2020/12/15 08:07:58;;;;;;;7.30;6.53;;;9.70;5.00;;;;;;5093934;28;20762;-68
2020/12/15 08:10:28;;;;;;;7.07;6.37;;;9.70;1.00;;;;;;5093642;28;20144;-68
2020/12/15 08:12:59;;;;;;;9.30;7.40;;;9.80;1.00;;;;;;5093539;28;20509;-67
2020/12/15 08:15:27;;;;;;;7.33;6.63;;;9.70;1.00;;;;;;5093248;28;20466;-67
2020/12/15 08:17:53;;;;;;;7.17;6.50;;;9.60;99.90;;;;;;5093027;28;20413;-68
2020/12/15 08:20:26;;;;;;;7.13;5.80;;;9.70;99.90;;;;;;5093200;28;20512;-67
2020/12/15 08:23:07;;;;;;;7.80;6.80;;;9.80;1.00;;;;;;5092951;28;20898;-67
2020/12/15 08:25:33;;;;;;;17.23;8.50;;;9.90;1.00;;;;;;5093164;28;20374;-68
2020/12/15 08:28:20;;;;;;;8.77;6.87;;;9.80;99.90;;;;;;5093259;28;20377;-67
2020/12/15 08:30:46;;;;;;;10.40;6.70;;;9.60;99.90;;;;;;5093009;28;20576;-67
2020/12/15 08:33:21;;;;;;;9.03;6.10;;;9.70;99.90;;;;;;5091350;28;20453;-67
2020/12/15 08:35:48;;;;;;;7.13;6.00;;;9.70;99.90;;;;;;5093331;28;20148;-68
2020/12/15 08:38:14;;;;;;;7.23;6.37;;;9.80;1.00;;;;;;5092944;28;20408;-68
2020/12/15 08:40:43;;;;;;;7.67;6.20;;;9.80;1.00;;;;;;5093141;28;20402;-68
2020/12/15 08:43:09;;;;;;;8.53;6.10;;;9.80;1.00;;;;;;5092828;28;21062;-68
2020/12/15 08:45:35;;;;;;;8.27;5.90;;;9.80;1.00;;;;;;5093150;28;20444;-68
2020/12/15 08:48:01;;;;;;;14.13;6.60;;;9.80;1.00;;;;;;5092590;28;20537;-68
2020/12/15 08:50:30;;;;;;;8.80;7.37;;;9.90;1.00;;;;;;5092928;28;20614;-68
2020/12/15 08:53:05;;;;;;;12.13;6.47;;;9.90;1.00;;;;;;5092274;28;20860;-68
2020/12/15 08:55:33;;;;;;;5.87;5.27;;;9.90;99.90;;;;;;5092024;28;20433;-68
2020/12/15 08:58:03;;;;;;;6.97;6.23;;;9.80;99.90;;;;;;5090676;28;20388;-67
2020/12/15 09:00:33;;;;;;;5.40;4.83;;;9.80;1.00;;;;;;5091519;28;20436;-67
2020/12/15 09:03:15;;;;;;;6.40;4.97;;;9.90;1.00;;;;;;5091943;28;20423;-67
2020/12/15 09:05:52;;;;;;;6.50;4.80;;;10.00;1.00;;;;;;5092301;28;20425;-67
2020/12/15 09:08:25;;;;;;;6.53;5.53;;;9.90;99.90;;;;;;5092916;28;20439;-67
2020/12/15 09:10:53;;;;;;;6.60;5.30;;;9.90;99.90;;;;;;5093016;28;20382;-67
2020/12/15 09:13:19;;;;;;;11.20;6.60;;;9.90;99.90;;;;;;5096625;28;20436;-67
2020/12/15 09:15:55;;;;;;;6.07;5.40;;;9.90;99.90;;;;;;5096526;28;20416;-67
2020/12/15 09:18:31;;;;;;;9.47;6.27;;;9.90;1.00;;;;;;5096542;28;20363;-67
2020/12/15 09:21:09;;;;;;;7.00;6.20;;;10.10;1.00;;;;;;5096573;28;20400;-67
2020/12/15 09:23:34;;;;;;;6.43;5.77;;;10.00;99.90;;;;;;5096276;28;20460;-67
2020/12/15 09:26:00;;;;;;;7.07;6.37;;;9.90;90.50;;;;;;5096253;28;20948;-67
2020/12/15 09:28:29;;;;;;;6.73;5.50;;;9.90;99.90;;;;;;5096404;28;20189;-67
2020/12/15 09:30:54;;;;;;;8.10;6.63;;;10.00;1.00;;;;;;5096300;28;20167;-66
2020/12/15 09:33:20;;;;;;;7.00;5.80;;;9.90;1.00;;;;;;5096007;28;20536;-66
2020/12/15 09:35:47;;;;;;;7.40;5.70;;;9.90;99.90;;;;;;5095462;28;20170;-67
2020/12/15 09:38:13;;;;;;;9.80;7.60;;;10.00;1.00;;;;;;5095669;28;20871;-68
2020/12/15 09:40:39;;;;;;;7.53;5.50;;;10.30;1.00;;;;;;5096047;28;20520;-66
2020/12/15 09:43:04;;;;;;;6.77;5.90;;;10.10;99.90;;;;;;5095899;28;20507;-66
2020/12/15 09:45:30;;;;;;;6.77;5.57;;;10.10;99.90;;;;;;5096211;28;20179;-67
2020/12/15 09:47:59;;;;;;;7.13;5.73;;;10.20;1.00;;;;;;5095614;28;20167;-67
2020/12/15 09:50:25;;;;;;;7.87;6.20;;;10.10;1.00;;;;;;5095698;28;20540;-66
2020/12/15 09:52:51;;;;;;;10.17;6.70;;;10.30;1.00;;;;;;5095999;28;20404;-67
2020/12/15 09:55:16;;;;;;;6.70;5.80;;;10.30;1.00;;;;;;5095888;28;21031;-69
2020/12/15 09:57:42;;;;;;;6.70;5.50;;;10.40;43.70;;;;;;5096115;28;20263;-67
2020/12/15 10:00:07;;;;;;;7.57;6.77;;;10.40;1.00;;;;;;5096251;28;20171;-67
2020/12/15 10:02:33;;;;;;;7.70;6.40;;;10.50;22.60;;;;;;5095425;28;20203;-68
2020/12/15 10:04:58;;;;;;;6.93;6.17;;;10.40;99.90;;;;;;5095840;28;20163;-67
2020/12/15 10:07:24;;;;;;;6.07;5.47;;;10.50;99.90;;;;;;5095999;28;20170;-67
2020/12/15 10:09:54;;;;;;;7.87;7.07;;;10.50;1.00;;;;;;5096038;28;20247;-68
2020/12/15 10:12:20;;;;;;;9.10;6.53;;;10.50;99.90;;;;;;5095546;28;20741;-68
2020/12/15 10:14:45;;;;;;;7.00;5.93;;;10.30;13.60;;;;;;5095723;28;20393;-68
2020/12/15 10:17:11;;;;;;;6.80;5.63;;;10.30;99.90;;;;;;5095425;28;20179;-68
2020/12/15 10:19:36;;;;;;;7.50;5.70;;;10.20;1.00;;;;;;5095265;28;20171;-67
2020/12/15 10:22:02;;;;;;;6.47;5.80;;;10.40;2.90;;;;;;5095094;28;20314;-68
2020/12/15 10:24:28;;;;;;;14.20;5.70;;;10.40;1.00;;;;;;5097003;28;20536;-68
2020/12/15 10:26:53;;;;;;;7.33;5.70;;;10.20;99.90;;;;;;5096763;28;20191;-68
2020/12/15 10:29:19;;;;;;;6.43;5.80;;;10.20;99.90;;;;;;5097093;28;20175;-66
2020/12/15 10:31:48;;;;;;;7.87;6.00;;;10.30;99.90;;;;;;5095503;28;20251;-67
2020/12/15 10:34:14;;;;;;;8.17;6.60;;;10.20;1.00;;;;;;5095651;28;20247;-68
2020/12/15 10:36:39;;;;;;;9.93;6.37;;;10.50;99.90;;;;;;5093575;28;20964;-67
2020/12/15 10:39:05;;;;;;;9.17;8.03;;;10.50;1.00;;;;;;5095071;28;20172;-67
2020/12/15 10:41:33;;;;;;;8.57;5.50;;;10.60;99.50;;;;;;5094214;28;20714;-67
2020/12/15 10:43:58;;;;;;;7.83;7.00;;;10.50;1.00;;;;;;5094803;28;20245;-67
2020/12/15 10:46:27;;;;;;;8.20;6.17;;;10.50;24.50;;;;;;5094833;28;20406;-67
2020/12/15 10:48:53;;;;;;;13.20;10.50;;;10.60;99.90;;;;;;5093192;28;20171;-67
2020/12/15 10:51:19;;;;;;;5.87;5.00;;;10.60;99.90;;;;;;5094859;28;20410;-67
2020/12/15 10:53:45;;;;;;;6.50;5.80;;;10.60;99.90;;;;;;5095131;28;20894;-67
2020/12/15 10:56:13;;;;;;;6.13;4.93;;;10.50;99.90;;;;;;5094495;28;20405;-68
2020/12/15 10:58:39;;;;;;;10.60;7.60;;;10.50;15.80;;;;;;5094701;28;20183;-67
2020/12/15 11:01:07;;;;;;;8.13;5.30;;;10.50;99.90;;;;;;5094753;28;20409;-67
2020/12/15 11:03:32;;;;;;;6.73;5.93;;;10.60;1.00;;;;;;5094738;28;20461;-68
2020/12/15 11:05:58;;;;;;;13.30;6.17;;;10.60;1.00;;;;;;5094655;28;20412;-65
2020/12/15 11:08:23;;;;;;;13.80;6.27;;;10.50;99.90;;;;;;5092755;28;20243;-67
2020/12/15 11:10:49;;;;;;;6.37;5.40;;;10.50;99.90;;;;;;5094130;28;20175;-66
2020/12/15 11:13:15;;;;;;;6.73;5.50;;;10.60;99.90;;;;;;5094222;28;20274;-67
2020/12/15 11:15:40;;;;;;;6.60;5.20;;;10.70;1.00;;;;;;5094415;28;20639;-67
2020/12/15 11:18:06;;;;;;;7.77;5.73;;;10.80;99.90;;;;;;5094434;28;20184;-66
2020/12/15 11:20:33;;;;;;;8.07;4.90;;;10.70;99.90;;;;;;5093970;28;20174;-67
2020/12/15 11:23:00;;;;;;;8.60;6.03;;;10.70;99.90;;;;;;5096023;28;20504;-68
2020/12/15 11:25:25;;;;;;;7.70;5.70;;;10.70;1.00;;;;;;5095237;28;20414;-65
2020/12/15 11:27:51;;;;;;;9.37;5.60;;;10.70;99.90;;;;;;5094702;28;20401;-68
2020/12/15 11:30:17;;;;;;;7.70;6.20;;;10.70;15.20;;;;;;5094601;28;20171;-67
2020/12/15 11:32:42;;;;;;;6.83;5.87;;;10.60;1.00;;;;;;5094735;28;20281;-67
2020/12/15 11:35:08;;;;;;;7.87;5.53;;;10.60;99.90;;;;;;5093144;28;20906;-67
2020/12/15 11:37:40;;;;;;;7.73;6.10;;;10.60;99.90;;;;;;5093629;28;20179;-68
2020/12/15 11:40:06;;;;;;;8.20;6.30;;;10.60;99.90;;;;;;5094169;28;20608;-66
2020/12/15 11:42:31;;;;;;;7.37;5.80;;;10.70;99.90;;;;;;5093796;28;20472;-66
2020/12/15 11:44:57;;;;;;;11.63;8.23;;;10.70;1.00;;;;;;5093674;28;20409;-65
2020/12/15 11:47:23;;;;;;;13.77;8.90;;;10.80;99.90;;;;;;5093521;28;20304;-67
2020/12/15 11:49:50;;;;;;;9.83;6.90;;;10.70;99.90;;;;;;5093788;28;20258;-66
2020/12/15 11:52:15;;;;;;;8.90;5.97;;;10.60;99.90;;;;;;5093679;28;20782;-66
2020/12/15 11:54:41;;;;;;;7.77;6.70;;;10.60;99.90;;;;;;5093488;28;20417;-66
2020/12/15 11:57:08;;;;;;;9.43;6.83;;;10.60;99.90;;;;;;5093391;28;20167;-66
2020/12/15 11:59:34;;;;;;;7.03;6.23;;;10.60;99.90;;;;;;5093524;28;20236;-66
2020/12/15 12:02:00;;;;;;;13.53;6.40;;;10.60;99.90;;;;;;5093135;28;20851;-68
2020/12/15 12:04:25;;;;;;;9.57;7.63;;;10.60;1.00;;;;;;5093309;28;20210;-68
2020/12/15 12:06:51;;;;;;;13.43;10.27;;;10.60;1.00;;;;;;5093213;28;20174;-68
2020/12/15 12:09:16;;;;;;;7.10;6.20;;;10.60;99.90;;;;;;5093250;28;20251;-68
2020/12/15 12:11:42;;;;;;;7.90;7.00;;;10.50;99.90;;;;;;5093320;28;20266;-68
2020/12/15 12:14:07;;;;;;;9.90;7.10;;;10.50;99.90;;;;;;5093460;28;20172;-68
2020/12/15 12:16:33;;;;;;;8.60;6.67;;;10.60;50.20;;;;;;5093270;28;20174;-67
2020/12/15 12:18:59;;;;;;;11.93;8.30;;;10.50;99.90;;;;;;5092876;28;20171;-68
2020/12/15 12:21:24;;;;;;;10.43;7.30;;;10.60;99.90;;;;;;5092838;28;20517;-68
2020/12/15 12:23:50;;;;;;;19.23;12.67;;;10.60;99.90;;;;;;5092918;28;20532;-68
2020/12/15 12:26:16;;;;;;;43.97;22.57;;;10.60;99.90;;;;;;5092973;28;20253;-65
2020/12/15 12:28:42;;;;;;;14.43;8.83;;;10.50;99.90;;;;;;5092660;28;20178;-67
2020/12/15 12:31:10;;;;;;;8.43;6.47;;;10.60;99.90;;;;;;5092771;28;20408;-67
2020/12/15 12:33:36;;;;;;;7.10;6.40;;;10.60;99.90;;;;;;5092744;28;20477;-66
2020/12/15 12:36:02;;;;;;;10.57;7.27;;;10.60;99.90;;;;;;5092916;28;20952;-65
2020/12/15 12:38:27;;;;;;;9.80;7.60;;;10.70;99.90;;;;;;5092739;28;20251;-70
2020/12/15 12:40:53;;;;;;;7.27;6.10;;;10.60;99.90;;;;;;5092791;28;20640;-67
2020/12/15 12:43:18;;;;;;;8.20;6.53;;;10.50;99.90;;;;;;5093045;28;20210;-67
2020/12/15 12:45:45;;;;;;;8.53;6.90;;;10.70;1.00;;;;;;5093093;28;20579;-67
2020/12/15 12:48:10;;;;;;;16.70;8.67;;;10.80;99.90;;;;;;5092473;28;20216;-67
2020/12/15 12:50:37;;;;;;;9.90;7.80;;;10.90;99.90;;;;;;5092505;28;20405;-66
2020/12/15 12:53:03;;;;;;;7.80;5.87;;;10.80;99.90;;;;;;5092834;28;20206;-65
2020/12/15 12:55:28;;;;;;;11.03;7.00;;;10.80;1.00;;;;;;5092558;28;20410;-66
2020/12/15 12:57:54;;;;;;;9.93;6.40;;;10.80;99.90;;;;;;5092456;28;20401;-67
2020/12/15 13:00:21;;;;;;;7.13;6.43;;;10.80;99.90;;;;;;5092561;28;20175;-67